createdAt,value
2022-11-16T00:00:20.996Z,53.80
2022-11-16T00:01:21.034Z,52.68
2022-11-16T00:02:21.047Z,52.99
2022-11-16T00:03:21.063Z,51.25
2022-11-16T00:04:21.657Z,52.81
2022-11-16T00:05:25.518Z,52.97
2022-11-16T00:06:21.964Z,53.39
2022-11-16T00:07:21.019Z,56.34
2022-11-16T00:08:20.961Z,56.09
2022-11-16T00:09:20.933Z,56.75
2022-11-16T00:10:20.922Z,56.29
2022-11-16T00:11:20.997Z,57.58
2022-11-16T00:12:20.930Z,56.02
2022-11-16T00:13:20.920Z,56.72
2022-11-16T00:14:20.916Z,58.43
2022-11-16T00:15:21.874Z,57.82
2022-11-16T00:16:20.897Z,56.34
2022-11-16T00:17:20.870Z,55.10
2022-11-16T00:18:20.884Z,56.90
2022-11-16T00:19:20.866Z,56.74
2022-11-16T00:20:20.875Z,58.31
2022-11-16T00:21:20.848Z,57.65
2022-11-16T00:22:20.844Z,56.51
2022-11-16T00:23:20.826Z,56.52
2022-11-16T00:24:20.814Z,56.98
2022-11-16T00:25:22.453Z,58.46
2022-11-16T00:26:20.813Z,58.78
2022-11-16T00:27:21.461Z,57.81
2022-11-16T00:28:20.805Z,58.74
2022-11-16T00:29:20.934Z,57.81
2022-11-16T00:30:20.838Z,57.77
2022-11-16T00:31:20.777Z,59.80
2022-11-16T00:32:20.772Z,59.45
2022-11-16T00:33:20.769Z,57.45
2022-11-16T00:34:20.812Z,56.62
2022-11-16T00:35:20.764Z,58.67
2022-11-16T00:36:20.726Z,55.75
2022-11-16T00:37:20.727Z,58.43
2022-11-16T00:38:20.723Z,58.67
2022-11-16T00:39:20.774Z,60.62
2022-11-16T00:40:20.705Z,60.78
2022-11-16T00:41:20.702Z,57.28
2022-11-16T00:42:20.694Z,55.47
2022-11-16T00:43:20.674Z,60.03
2022-11-16T00:44:22.951Z,59.20
2022-11-16T00:45:20.670Z,59.23
2022-11-16T00:46:20.656Z,59.78
2022-11-16T00:47:20.653Z,59.86
2022-11-16T00:48:20.949Z,57.29
2022-11-16T00:49:20.641Z,58.16
2022-11-16T00:50:20.658Z,58.90
2022-11-16T00:51:20.611Z,58.17
2022-11-16T00:52:20.624Z,61.41
2022-11-16T00:53:20.621Z,57.68
2022-11-16T00:54:22.387Z,58.11
2022-11-16T00:55:20.587Z,57.01
2022-11-16T00:56:20.598Z,57.77
2022-11-16T00:57:20.582Z,59.64
2022-11-16T00:58:20.561Z,61.51
2022-11-16T00:59:20.585Z,58.25
2022-11-16T01:00:20.551Z,60.05
2022-11-16T01:01:20.589Z,61.50
2022-11-16T01:02:20.561Z,58.84
2022-11-16T01:03:20.523Z,59.48
2022-11-16T01:04:20.983Z,57.16
2022-11-16T01:05:20.523Z,57.16
2022-11-16T01:06:20.533Z,59.17
2022-11-16T01:07:20.584Z,62.49
2022-11-16T01:08:20.489Z,58.04
2022-11-16T01:09:20.483Z,58.89
2022-11-16T01:10:20.512Z,59.67
2022-11-16T01:11:20.628Z,59.28
2022-11-16T01:12:20.462Z,61.27
2022-11-16T01:13:20.452Z,56.71
2022-11-16T01:14:20.460Z,55.27
2022-11-16T01:15:20.685Z,54.64
2022-11-16T01:16:20.452Z,56.97
2022-11-16T01:17:20.446Z,57.34
2022-11-16T01:18:20.422Z,55.58
2022-11-16T01:19:20.422Z,55.87
2022-11-16T01:20:20.449Z,54.06
2022-11-16T01:21:20.395Z,57.30
2022-11-16T01:22:20.429Z,57.04
2022-11-16T01:23:20.385Z,60.09
2022-11-16T01:24:20.458Z,61.51
2022-11-16T01:25:20.403Z,58.02
2022-11-16T01:26:20.361Z,57.10
2022-11-16T01:27:20.364Z,58.92
2022-11-16T01:28:20.346Z,60.21
2022-11-16T01:29:26.653Z,57.63
2022-11-16T01:30:20.349Z,58.90
2022-11-16T01:31:20.796Z,60.90
2022-11-16T01:32:20.412Z,59.02
2022-11-16T01:33:20.330Z,55.57
2022-11-16T01:34:20.309Z,56.24
2022-11-16T01:35:20.310Z,56.62
2022-11-16T01:36:20.738Z,57.82
2022-11-16T01:37:20.286Z,59.22
2022-11-16T01:38:20.312Z,61.53
2022-11-16T01:39:20.268Z,57.99
2022-11-16T01:40:20.280Z,56.24
2022-11-16T01:41:20.990Z,58.43
2022-11-16T01:42:20.251Z,57.80
2022-11-16T01:43:21.107Z,57.76
2022-11-16T01:44:21.088Z,57.72
2022-11-16T01:45:20.246Z,56.87
2022-11-16T01:46:20.583Z,57.44
2022-11-16T01:47:20.236Z,56.66
2022-11-16T01:48:20.302Z,54.60
2022-11-16T01:49:20.285Z,55.93
2022-11-16T01:50:20.205Z,58.12
2022-11-16T01:51:20.187Z,56.71
2022-11-16T01:52:20.212Z,60.84
2022-11-16T01:53:20.220Z,56.89
2022-11-16T01:54:20.197Z,58.05
2022-11-16T01:55:20.169Z,58.59
2022-11-16T01:56:20.140Z,56.07
2022-11-16T01:57:20.150Z,56.51
2022-11-16T01:58:20.147Z,55.87
2022-11-16T01:59:20.152Z,57.83
2022-11-16T02:00:20.119Z,56.16
2022-11-16T02:01:20.211Z,57.75
2022-11-16T02:02:20.122Z,57.61
2022-11-16T02:03:20.092Z,58.43
2022-11-16T02:04:20.115Z,58.49
2022-11-16T02:05:20.238Z,57.65
2022-11-16T02:06:20.073Z,59.25
2022-11-16T02:07:20.192Z,59.66
2022-11-16T02:08:20.070Z,57.46
2022-11-16T02:09:21.056Z,58.41
2022-11-16T02:10:20.080Z,58.58
2022-11-16T02:11:20.033Z,57.73
2022-11-16T02:12:20.114Z,57.79
2022-11-16T02:13:20.032Z,57.36
2022-11-16T02:14:21.222Z,58.37
2022-11-16T02:15:20.513Z,58.97
2022-11-16T02:16:20.011Z,58.63
2022-11-16T02:17:20.002Z,58.50
2022-11-16T02:18:19.976Z,57.47
2022-11-16T02:19:19.983Z,56.92
2022-11-16T02:20:19.996Z,56.67
2022-11-16T02:21:20.366Z,53.52
2022-11-16T02:22:19.961Z,52.98
2022-11-16T02:23:19.973Z,52.11
2022-11-16T02:24:19.947Z,53.34
2022-11-16T02:25:19.945Z,54.01
2022-11-16T02:26:19.976Z,55.12
2022-11-16T02:27:19.926Z,57.94
2022-11-16T02:28:19.907Z,56.48
2022-11-16T02:29:19.902Z,54.88
2022-11-16T02:30:19.918Z,54.39
2022-11-16T02:31:19.891Z,53.53
2022-11-16T02:32:21.272Z,53.87
2022-11-16T02:33:19.883Z,54.54
2022-11-16T02:34:19.859Z,54.90
2022-11-16T02:35:19.868Z,53.49
2022-11-16T02:36:20.412Z,54.71
2022-11-16T02:37:19.839Z,55.76
2022-11-16T02:38:19.845Z,55.62
2022-11-16T02:39:19.828Z,55.23
2022-11-16T02:40:19.830Z,54.46
2022-11-16T02:41:19.820Z,55.80
2022-11-16T02:42:20.461Z,53.42
2022-11-16T02:43:19.811Z,52.68
2022-11-16T02:44:19.794Z,54.35
2022-11-16T02:45:19.778Z,54.06
2022-11-16T02:46:19.784Z,56.24
2022-11-16T02:47:20.232Z,58.80
2022-11-16T02:48:19.756Z,57.26
2022-11-16T02:49:19.755Z,55.43
2022-11-16T02:50:19.762Z,53.68
2022-11-16T02:51:19.730Z,53.68
2022-11-16T02:52:19.740Z,54.52
2022-11-16T02:53:19.732Z,55.49
2022-11-16T02:54:19.734Z,57.02
2022-11-16T02:55:19.718Z,55.72
2022-11-16T02:56:19.696Z,53.28
2022-11-16T02:57:19.691Z,53.00
2022-11-16T02:58:20.401Z,53.45
2022-11-16T02:59:19.713Z,53.07
2022-11-16T03:00:19.682Z,52.40
2022-11-16T03:01:19.722Z,52.42
2022-11-16T03:02:19.655Z,52.40
2022-11-16T03:03:19.645Z,54.55
2022-11-16T03:04:19.725Z,54.16
2022-11-16T03:05:20.460Z,53.31
2022-11-16T03:06:19.632Z,53.15
2022-11-16T03:07:19.698Z,53.49
2022-11-16T03:08:19.614Z,55.54
2022-11-16T03:09:19.603Z,59.61
2022-11-16T03:10:20.256Z,56.10
2022-11-16T03:11:19.584Z,55.60
2022-11-16T03:12:19.595Z,56.53
2022-11-16T03:13:19.591Z,57.27
2022-11-16T03:14:19.588Z,55.85
2022-11-16T03:15:20.059Z,55.01
2022-11-16T03:16:19.552Z,54.17
2022-11-16T03:17:19.541Z,55.35
2022-11-16T03:18:19.554Z,55.93
2022-11-16T03:19:19.562Z,58.45
2022-11-16T03:20:19.543Z,55.21
2022-11-16T03:21:19.525Z,56.24
2022-11-16T03:22:19.902Z,54.44
2022-11-16T03:23:19.502Z,54.24
2022-11-16T03:24:19.508Z,56.01
2022-11-16T03:25:19.505Z,54.52
2022-11-16T03:26:19.724Z,54.92
2022-11-16T03:27:19.484Z,55.71
2022-11-16T03:28:19.465Z,55.36
2022-11-16T03:29:19.455Z,54.50
2022-11-16T03:30:23.378Z,56.20
2022-11-16T03:31:19.464Z,56.11
2022-11-16T03:32:19.457Z,55.36
2022-11-16T03:33:19.448Z,54.09
2022-11-16T03:34:19.433Z,55.90
2022-11-16T03:35:19.432Z,56.23
2022-11-16T03:36:19.411Z,56.04
2022-11-16T03:37:19.442Z,55.71
2022-11-16T03:38:19.407Z,58.89
2022-11-16T03:39:19.408Z,58.21
2022-11-16T03:40:19.407Z,58.34
2022-11-16T03:41:19.385Z,57.81
2022-11-16T03:42:19.374Z,59.89
2022-11-16T03:43:19.354Z,58.20
2022-11-16T03:44:19.793Z,57.32
2022-11-16T03:45:19.358Z,57.88
2022-11-16T03:46:19.419Z,57.64
2022-11-16T03:47:19.343Z,57.88
2022-11-16T03:48:19.344Z,59.02
2022-11-16T03:49:19.801Z,59.77
2022-11-16T03:50:19.312Z,57.40
2022-11-16T03:51:19.382Z,58.70
2022-11-16T03:52:20.657Z,57.22
2022-11-16T03:53:19.291Z,58.24
2022-11-16T03:54:19.297Z,57.33
2022-11-16T03:55:20.272Z,58.29
2022-11-16T03:56:19.289Z,59.41
2022-11-16T03:57:19.311Z,57.39
2022-11-16T03:58:19.259Z,57.33
2022-11-16T03:59:19.275Z,57.24
2022-11-16T04:00:19.252Z,57.16
2022-11-16T04:01:19.376Z,58.20
2022-11-16T04:02:20.399Z,56.70
2022-11-16T04:03:19.216Z,56.14
2022-11-16T04:04:19.211Z,58.63
2022-11-16T04:05:19.219Z,58.53
2022-11-16T04:06:19.216Z,58.04
2022-11-16T04:07:19.283Z,60.13
2022-11-16T04:08:19.190Z,57.92
2022-11-16T04:09:19.191Z,59.00
2022-11-16T04:10:21.520Z,56.28
2022-11-16T04:11:19.174Z,58.56
2022-11-16T04:12:19.166Z,59.22
2022-11-16T04:13:19.146Z,59.39
2022-11-16T04:14:19.486Z,58.80
2022-11-16T04:15:19.136Z,58.14
2022-11-16T04:16:19.123Z,59.11
2022-11-16T04:17:19.137Z,58.81
2022-11-16T04:18:19.140Z,58.20
2022-11-16T04:19:19.134Z,57.24
2022-11-16T04:20:19.114Z,59.21
2022-11-16T04:21:19.090Z,60.21
2022-11-16T04:22:19.081Z,59.39
2022-11-16T04:23:19.086Z,58.89
2022-11-16T04:24:19.276Z,60.41
2022-11-16T04:25:20.798Z,61.44
2022-11-16T04:26:19.098Z,61.89
2022-11-16T04:27:19.049Z,61.09
2022-11-16T04:28:19.047Z,61.70
2022-11-16T04:29:19.062Z,61.10
2022-11-16T04:30:19.520Z,61.42
2022-11-16T04:31:19.030Z,64.00
2022-11-16T04:32:25.703Z,63.37
2022-11-16T04:33:19.148Z,61.60
2022-11-16T04:34:19.835Z,59.80
2022-11-16T04:35:18.994Z,59.64
2022-11-16T04:36:20.993Z,59.02
2022-11-16T04:37:18.980Z,57.80
2022-11-16T04:38:19.000Z,62.81
2022-11-16T04:39:19.030Z,59.70
2022-11-16T04:40:18.969Z,58.89
2022-11-16T04:41:19.002Z,59.73
2022-11-16T04:42:19.189Z,60.10
2022-11-16T04:43:18.959Z,59.15
2022-11-16T04:44:18.939Z,59.65
2022-11-16T04:45:18.921Z,61.84
2022-11-16T04:46:18.942Z,63.84
2022-11-16T04:47:18.905Z,62.12
2022-11-16T04:48:18.895Z,60.97
2022-11-16T04:49:18.970Z,61.50
2022-11-16T04:50:19.652Z,61.44
2022-11-16T04:51:18.953Z,60.54
2022-11-16T04:52:18.890Z,59.94
2022-11-16T04:53:18.873Z,60.47
2022-11-16T04:54:18.859Z,59.76
2022-11-16T04:55:18.869Z,60.19
2022-11-16T04:56:18.860Z,60.32
2022-11-16T04:57:18.841Z,61.51
2022-11-16T04:58:18.857Z,61.51
2022-11-16T04:59:18.888Z,61.61
2022-11-16T05:00:18.819Z,60.47
2022-11-16T05:01:18.987Z,61.50
2022-11-16T05:02:18.811Z,61.42
2022-11-16T05:03:18.806Z,61.85
2022-11-16T05:04:18.802Z,58.44
2022-11-16T05:05:18.786Z,59.30
2022-11-16T05:06:19.142Z,60.13
2022-11-16T05:07:18.820Z,58.82
2022-11-16T05:08:18.760Z,59.06
2022-11-16T05:09:18.764Z,59.52
2022-11-16T05:10:18.764Z,60.56
2022-11-16T05:11:19.045Z,58.28
2022-11-16T05:12:18.740Z,58.87
2022-11-16T05:13:18.781Z,59.31
2022-11-16T05:14:18.721Z,59.08
2022-11-16T05:15:18.726Z,59.78
2022-11-16T05:16:18.738Z,59.88
2022-11-16T05:17:18.701Z,61.69
2022-11-16T05:18:19.451Z,61.95
2022-11-16T05:19:18.691Z,62.12
2022-11-16T05:20:18.681Z,61.39
2022-11-16T05:21:18.713Z,62.94
2022-11-16T05:22:18.701Z,63.18
2022-11-16T05:23:18.677Z,61.11
2022-11-16T05:24:18.673Z,61.38
2022-11-16T05:25:18.656Z,59.90
2022-11-16T05:26:18.640Z,61.55
2022-11-16T05:27:18.693Z,61.88
2022-11-16T05:28:19.362Z,61.33
2022-11-16T05:29:18.895Z,60.73
2022-11-16T05:30:18.642Z,60.56
2022-11-16T05:31:18.606Z,60.57
2022-11-16T05:32:18.636Z,61.41
2022-11-16T05:33:18.623Z,61.41
2022-11-16T05:34:23.537Z,60.30
2022-11-16T05:35:18.591Z,61.62
2022-11-16T05:36:18.593Z,60.82
2022-11-16T05:37:18.566Z,61.19
2022-11-16T05:38:18.599Z,63.19
2022-11-16T05:39:18.981Z,62.03
2022-11-16T05:40:18.550Z,60.75
2022-11-16T05:41:18.555Z,61.71
2022-11-16T05:42:18.594Z,60.55
2022-11-16T05:43:18.543Z,62.04
2022-11-16T05:44:18.531Z,64.21
2022-11-16T05:45:21.192Z,61.20
2022-11-16T05:46:18.532Z,61.26
2022-11-16T05:47:18.495Z,60.58
2022-11-16T05:48:18.494Z,60.13
2022-11-16T05:49:18.495Z,60.53
2022-11-16T05:50:18.479Z,64.44
2022-11-16T05:51:19.167Z,60.49
2022-11-16T05:52:18.477Z,60.09
2022-11-16T05:53:18.741Z,60.11
2022-11-16T05:54:18.488Z,59.93
2022-11-16T05:55:18.439Z,59.61
2022-11-16T05:56:18.449Z,59.90
2022-11-16T05:57:19.218Z,59.80
2022-11-16T05:58:20.325Z,60.09
2022-11-16T05:59:18.421Z,59.60
2022-11-16T06:00:18.412Z,59.30
2022-11-16T06:01:18.412Z,59.84
2022-11-16T06:02:18.395Z,61.16
2022-11-16T06:03:18.474Z,60.69
2022-11-16T06:04:23.253Z,58.00
2022-11-16T06:05:19.635Z,58.30
2022-11-16T06:06:18.433Z,59.35
2022-11-16T06:07:18.461Z,59.91
2022-11-16T06:08:18.386Z,60.82
2022-11-16T06:09:18.359Z,60.13
2022-11-16T06:10:18.398Z,60.71
2022-11-16T06:11:19.303Z,60.35
2022-11-16T06:12:18.352Z,59.66
2022-11-16T06:13:18.337Z,60.46
2022-11-16T06:14:18.803Z,60.21
2022-11-16T06:15:18.352Z,60.46
2022-11-16T06:16:18.699Z,59.80
2022-11-16T06:17:18.364Z,59.88
2022-11-16T06:18:18.346Z,59.96
2022-11-16T06:19:18.286Z,59.76
2022-11-16T06:20:18.284Z,58.64
2022-11-16T06:21:18.291Z,59.93
2022-11-16T06:22:18.271Z,59.56
2022-11-16T06:23:18.273Z,58.86
2022-11-16T06:24:18.259Z,60.74
2022-11-16T06:25:18.251Z,60.86
2022-11-16T06:26:18.247Z,61.17
2022-11-16T06:27:18.220Z,61.68
2022-11-16T06:28:18.227Z,61.68
2022-11-16T06:29:18.223Z,61.04
2022-11-16T06:30:18.597Z,60.98
2022-11-16T06:31:18.194Z,60.78
2022-11-16T06:32:18.497Z,60.22
2022-11-16T06:33:18.199Z,59.09
2022-11-16T06:34:18.171Z,60.53
2022-11-16T06:35:18.182Z,61.23
2022-11-16T06:36:18.193Z,61.19
2022-11-16T06:37:19.382Z,61.47
2022-11-16T06:38:18.158Z,59.31
2022-11-16T06:39:18.146Z,60.79
2022-11-16T06:40:18.161Z,62.06
2022-11-16T06:41:18.194Z,63.50
2022-11-16T06:42:18.141Z,61.74
2022-11-16T06:43:18.127Z,60.44
2022-11-16T06:44:18.114Z,59.32
2022-11-16T06:45:18.169Z,59.30
2022-11-16T06:46:18.095Z,59.31
2022-11-16T06:47:18.146Z,57.22
2022-11-16T06:48:18.394Z,58.58
2022-11-16T06:49:18.912Z,58.19
2022-11-16T06:50:18.090Z,58.35
2022-11-16T06:51:18.122Z,59.42
2022-11-16T06:52:18.055Z,58.67
2022-11-16T06:53:39.052Z,57.16
2022-11-16T06:54:18.752Z,55.85
2022-11-16T06:55:18.032Z,56.24
2022-11-16T06:56:18.027Z,57.59
2022-11-16T06:57:18.037Z,57.92
2022-11-16T06:58:18.027Z,58.07
2022-11-16T06:59:18.008Z,58.38
2022-11-16T07:00:18.006Z,60.93
2022-11-16T07:01:18.123Z,59.99
2022-11-16T07:02:18.008Z,58.80
2022-11-16T07:03:17.990Z,58.52
2022-11-16T07:04:18.022Z,59.50
2022-11-16T07:05:18.424Z,56.55
2022-11-16T07:06:17.962Z,61.32
2022-11-16T07:07:18.108Z,65.57
2022-11-16T07:08:17.943Z,60.23
2022-11-16T07:09:18.989Z,58.04
2022-11-16T07:10:17.941Z,59.79
2022-11-16T07:11:19.004Z,61.43
2022-11-16T07:12:17.930Z,60.22
2022-11-16T07:13:17.908Z,60.48
2022-11-16T07:14:17.903Z,60.46
2022-11-16T07:15:17.919Z,74.23
2022-11-16T07:16:17.921Z,60.62
2022-11-16T07:17:17.882Z,59.26
2022-11-16T07:18:18.755Z,61.56
2022-11-16T07:19:17.882Z,57.45
2022-11-16T07:20:18.068Z,56.74
2022-11-16T07:21:17.867Z,57.70
2022-11-16T07:22:17.860Z,58.48
2022-11-16T07:23:17.837Z,58.85
2022-11-16T07:24:17.852Z,58.03
2022-11-16T07:25:17.839Z,59.48
2022-11-16T07:26:18.215Z,57.44
2022-11-16T07:27:17.821Z,58.68
2022-11-16T07:28:17.802Z,57.38
2022-11-16T07:29:17.801Z,58.60
2022-11-16T07:30:17.793Z,56.33
2022-11-16T07:31:17.822Z,60.12
2022-11-16T07:32:17.767Z,57.19
2022-11-16T07:33:17.770Z,56.83
2022-11-16T07:34:17.801Z,64.90
2022-11-16T07:35:17.756Z,58.40
2022-11-16T07:36:17.874Z,56.88
2022-11-16T07:37:17.731Z,56.52
2022-11-16T07:38:18.723Z,56.49
2022-11-16T07:39:17.738Z,57.70
2022-11-16T07:40:17.755Z,57.03
2022-11-16T07:41:17.722Z,58.76
2022-11-16T07:42:17.719Z,59.86
2022-11-16T07:43:17.695Z,60.14
2022-11-16T07:44:17.745Z,58.13
2022-11-16T07:45:18.159Z,59.95
2022-11-16T07:46:48.115Z,61.72
2022-11-16T07:47:18.687Z,57.96
2022-11-16T07:48:17.679Z,57.99
2022-11-16T07:49:17.714Z,58.40
2022-11-16T07:50:18.201Z,58.55
2022-11-16T07:51:17.626Z,57.73
2022-11-16T07:52:17.667Z,60.42
2022-11-16T07:53:17.620Z,62.53
2022-11-16T07:54:17.664Z,64.58
2022-11-16T07:55:19.995Z,66.09
2022-11-16T07:56:17.594Z,60.65
2022-11-16T07:57:17.600Z,58.20
2022-11-16T07:58:17.592Z,56.75
2022-11-16T07:59:17.580Z,58.87
2022-11-16T08:00:17.582Z,59.18
2022-11-16T08:01:17.603Z,58.36
2022-11-16T08:02:17.559Z,56.75
2022-11-16T08:03:23.409Z,63.79
2022-11-16T08:04:18.561Z,58.69
2022-11-16T08:05:17.534Z,57.16
2022-11-16T08:06:17.524Z,57.47
2022-11-16T08:07:17.575Z,56.34
2022-11-16T08:08:17.552Z,57.98
2022-11-16T08:09:17.525Z,57.10
2022-11-16T08:10:17.988Z,56.99
2022-11-16T08:11:17.498Z,57.55
2022-11-16T08:12:17.486Z,57.52
2022-11-16T08:13:17.462Z,59.09
2022-11-16T08:14:17.457Z,57.77
2022-11-16T08:15:17.459Z,57.54
2022-11-16T08:16:18.219Z,56.14
2022-11-16T08:17:17.454Z,56.78
2022-11-16T08:18:17.443Z,58.66
2022-11-16T08:19:17.446Z,57.43
2022-11-16T08:20:17.414Z,56.34
2022-11-16T08:21:17.413Z,56.45
2022-11-16T08:22:17.408Z,56.78
2022-11-16T08:23:17.428Z,58.15
2022-11-16T08:24:17.577Z,57.59
2022-11-16T08:25:17.394Z,57.97
2022-11-16T08:26:17.369Z,58.93
2022-11-16T08:27:17.390Z,57.31
2022-11-16T08:28:18.048Z,57.61
2022-11-16T08:29:17.357Z,57.79
2022-11-16T08:30:17.355Z,55.86
2022-11-16T08:31:17.336Z,56.59
2022-11-16T08:32:17.344Z,57.52
2022-11-16T08:33:17.556Z,55.79
2022-11-16T08:34:17.313Z,55.44
2022-11-16T08:35:17.324Z,55.11
2022-11-16T08:36:17.389Z,55.38
2022-11-16T08:37:17.297Z,54.74
2022-11-16T08:38:17.312Z,55.30
2022-11-16T08:39:17.737Z,56.58
2022-11-16T08:40:17.295Z,58.91
2022-11-16T08:41:17.271Z,54.89
2022-11-16T08:42:17.361Z,54.63
2022-11-16T08:43:17.247Z,55.58
2022-11-16T08:44:17.266Z,56.75
2022-11-16T08:45:17.229Z,56.78
2022-11-16T08:46:17.228Z,57.22
2022-11-16T08:47:17.232Z,58.58
2022-11-16T08:48:17.212Z,56.28
2022-11-16T08:49:17.236Z,57.98
2022-11-16T08:50:44.260Z,56.91
2022-11-16T08:51:19.462Z,56.14
2022-11-16T08:52:17.180Z,58.15
2022-11-16T08:53:17.174Z,59.35
2022-11-16T08:54:17.601Z,57.84
2022-11-16T08:55:17.170Z,57.07
2022-11-16T08:56:17.183Z,55.44
2022-11-16T08:57:17.185Z,54.80
2022-11-16T08:58:17.144Z,60.12
2022-11-16T08:59:17.480Z,59.32
2022-11-16T09:00:17.139Z,58.62
2022-11-16T09:01:17.301Z,56.86
2022-11-16T09:02:17.148Z,56.81
2022-11-16T09:03:17.135Z,56.59
2022-11-16T09:04:17.120Z,57.89
2022-11-16T09:05:17.099Z,58.08
2022-11-16T09:06:17.089Z,54.97
2022-11-16T09:07:17.130Z,55.66
2022-11-16T09:08:17.064Z,56.36
2022-11-16T09:09:17.075Z,56.05
2022-11-16T09:10:17.070Z,58.05
2022-11-16T09:11:17.055Z,54.55
2022-11-16T09:12:38.091Z,57.13
2022-11-16T09:13:17.032Z,57.54
2022-11-16T09:14:17.024Z,56.71
2022-11-16T09:15:17.020Z,56.53
2022-11-16T09:16:17.506Z,56.18
2022-11-16T09:17:22.762Z,55.17
2022-11-16T09:18:18.004Z,53.87
2022-11-16T09:19:16.985Z,55.32
2022-11-16T09:20:16.973Z,55.18
2022-11-16T09:21:16.985Z,56.53
2022-11-16T09:22:16.980Z,54.63
2022-11-16T09:23:20.965Z,53.98
2022-11-16T09:24:17.952Z,55.79
2022-11-16T09:25:16.939Z,56.72
2022-11-16T09:26:16.946Z,57.65
2022-11-16T09:27:16.982Z,55.04
2022-11-16T09:28:17.735Z,53.92
2022-11-16T09:29:16.917Z,54.12
2022-11-16T09:30:16.918Z,53.50
2022-11-16T09:31:21.976Z,54.87
2022-11-16T09:32:17.913Z,53.60
2022-11-16T09:33:16.878Z,52.92
2022-11-16T09:34:16.884Z,54.50
2022-11-16T09:35:16.872Z,54.63
2022-11-16T09:36:16.879Z,56.81
2022-11-16T09:37:16.852Z,58.97
2022-11-16T09:38:24.148Z,57.52
2022-11-16T09:39:53.737Z,56.58
2022-11-16T09:40:16.832Z,54.98
2022-11-16T09:41:16.852Z,54.40
2022-11-16T09:42:16.814Z,52.29
2022-11-16T09:43:16.807Z,53.03
2022-11-16T09:44:18.892Z,53.82
2022-11-16T09:45:16.794Z,52.29
2022-11-16T09:46:16.788Z,53.71
2022-11-16T09:47:16.793Z,53.25
2022-11-16T09:48:16.782Z,51.29
2022-11-16T09:49:17.872Z,61.79
2022-11-16T09:50:17.487Z,55.99
2022-11-16T09:51:16.762Z,52.52
2022-11-16T09:52:16.751Z,54.70
2022-11-16T09:53:16.741Z,52.95
2022-11-16T09:54:17.998Z,53.12
2022-11-16T09:55:16.747Z,49.36
2022-11-16T09:56:21.824Z,56.72
2022-11-16T09:57:18.279Z,61.84
2022-11-16T09:58:16.707Z,55.76
2022-11-16T09:59:18.300Z,52.73
2022-11-16T10:00:16.804Z,50.51
2022-11-16T10:01:16.751Z,50.00
2022-11-16T10:02:16.690Z,50.67
2022-11-16T10:03:17.908Z,51.79
2022-11-16T10:04:16.657Z,50.85
2022-11-16T10:05:16.664Z,52.17
2022-11-16T10:06:16.652Z,52.16
2022-11-16T10:07:17.111Z,51.34
2022-11-16T10:08:16.636Z,51.11
2022-11-16T10:09:16.628Z,51.24
2022-11-16T10:10:16.640Z,50.92
2022-11-16T10:11:16.610Z,50.20
2022-11-16T10:12:16.615Z,61.29
2022-11-16T10:13:16.594Z,49.31
2022-11-16T10:14:16.596Z,51.06
2022-11-16T10:15:16.588Z,53.75
2022-11-16T10:16:16.609Z,53.51
2022-11-16T10:17:16.578Z,50.00
2022-11-16T10:18:16.573Z,49.74
2022-11-16T10:19:16.563Z,49.80
2022-11-16T10:20:16.550Z,49.83
2022-11-16T10:21:17.280Z,51.85
2022-11-16T10:22:16.540Z,52.36
2022-11-16T10:23:16.531Z,55.64
2022-11-16T10:24:16.525Z,55.14
2022-11-16T10:25:16.509Z,56.59
2022-11-16T10:26:16.513Z,52.24
2022-11-16T10:27:21.709Z,51.18
2022-11-16T10:28:17.559Z,51.33
2022-11-16T10:29:16.488Z,54.80
2022-11-16T10:30:16.478Z,51.11
2022-11-16T10:31:16.883Z,52.34
2022-11-16T10:32:16.908Z,54.65
2022-11-16T10:33:16.451Z,52.94
2022-11-16T10:34:16.458Z,50.61
2022-11-16T10:35:17.675Z,52.22
2022-11-16T10:36:16.435Z,51.62
2022-11-16T10:37:16.439Z,52.93
2022-11-16T10:38:16.417Z,51.55
2022-11-16T10:39:18.499Z,50.93
2022-11-16T10:40:16.413Z,50.41
2022-11-16T10:41:16.410Z,51.07
2022-11-16T10:42:16.416Z,52.40
2022-11-16T10:43:16.389Z,53.55
2022-11-16T10:44:16.412Z,54.98
2022-11-16T10:45:16.376Z,50.04
2022-11-16T10:46:16.373Z,49.56
2022-11-16T10:47:16.361Z,50.58
2022-11-16T10:48:16.455Z,51.33
2022-11-16T10:49:16.354Z,50.51
2022-11-16T10:50:16.343Z,50.71
2022-11-16T10:51:16.335Z,52.57
2022-11-16T10:52:16.646Z,51.60
2022-11-16T10:53:16.326Z,53.13
2022-11-16T10:54:16.328Z,50.53
2022-11-16T10:55:16.313Z,49.64
2022-11-16T10:56:16.298Z,51.26
2022-11-16T10:57:16.300Z,54.67
2022-11-16T10:58:16.282Z,52.13
2022-11-16T10:59:16.853Z,50.41
2022-11-16T11:00:22.041Z,52.17
2022-11-16T11:01:17.325Z,54.79
2022-11-16T11:02:16.263Z,53.27
2022-11-16T11:03:16.258Z,53.07
2022-11-16T11:04:16.375Z,51.34
2022-11-16T11:05:16.248Z,54.26
2022-11-16T11:06:16.219Z,57.19
2022-11-16T11:07:16.241Z,53.66
2022-11-16T11:08:16.296Z,54.38
2022-11-16T11:09:16.196Z,50.73
2022-11-16T11:10:16.214Z,55.54
2022-11-16T11:11:16.189Z,53.83
2022-11-16T11:12:16.205Z,49.62
2022-11-16T11:13:16.191Z,53.33
2022-11-16T11:14:16.169Z,51.85
2022-11-16T11:15:19.056Z,51.72
2022-11-16T11:16:17.157Z,51.97
2022-11-16T11:17:16.143Z,52.76
2022-11-16T11:18:16.135Z,50.06
2022-11-16T11:19:16.136Z,49.44
2022-11-16T11:20:16.193Z,49.53
2022-11-16T11:21:16.163Z,49.07
2022-11-16T11:22:16.123Z,48.77
2022-11-16T11:23:16.104Z,49.34
2022-11-16T11:24:42.934Z,50.86
2022-11-16T11:25:17.103Z,50.44
2022-11-16T11:26:16.071Z,49.29
2022-11-16T11:27:16.065Z,47.98
2022-11-16T11:28:16.067Z,51.91
2022-11-16T11:29:16.059Z,52.71
2022-11-16T11:30:16.116Z,49.44
2022-11-16T11:31:16.048Z,61.38
2022-11-16T11:32:24.128Z,50.14
2022-11-16T11:33:17.023Z,49.25
2022-11-16T11:34:16.034Z,54.87
2022-11-16T11:35:16.015Z,52.04
2022-11-16T11:36:16.034Z,50.11
2022-11-16T11:37:16.008Z,49.23
2022-11-16T11:38:16.005Z,50.53
2022-11-16T11:39:16.070Z,50.94
2022-11-16T11:40:16.123Z,49.41
2022-11-16T11:41:15.972Z,51.42
2022-11-16T11:42:16.644Z,54.30
2022-11-16T11:43:18.876Z,52.25
2022-11-16T11:44:15.951Z,51.10
2022-11-16T11:45:15.943Z,58.48
2022-11-16T11:46:15.932Z,52.44
2022-11-16T11:47:55.448Z,56.89
2022-11-16T11:48:16.920Z,50.93
2022-11-16T11:49:16.049Z,51.92
2022-11-16T11:50:15.904Z,52.39
2022-11-16T11:51:15.906Z,61.83
2022-11-16T11:52:16.003Z,52.85
2022-11-16T11:53:15.878Z,50.94
2022-11-16T11:54:16.089Z,53.08
2022-11-16T11:55:15.876Z,52.33
2022-11-16T11:56:15.875Z,51.82
2022-11-16T11:57:15.858Z,54.51
2022-11-16T11:58:16.520Z,50.25
2022-11-16T11:59:15.852Z,49.77
2022-11-16T12:00:15.845Z,49.47
2022-11-16T12:01:19.452Z,61.58
2022-11-16T12:02:16.823Z,50.56
2022-11-16T12:03:15.858Z,50.10
2022-11-16T12:04:15.799Z,52.42
2022-11-16T12:05:15.820Z,49.15
2022-11-16T12:06:15.801Z,48.63
2022-11-16T12:07:15.789Z,50.59
2022-11-16T12:08:15.902Z,49.44
2022-11-16T12:09:15.781Z,48.24
2022-11-16T12:10:15.762Z,47.61
2022-11-16T12:11:16.532Z,51.63
2022-11-16T12:12:15.740Z,49.48
2022-11-16T12:13:16.604Z,49.74
2022-11-16T12:14:15.767Z,48.73
2022-11-16T12:15:15.731Z,54.32
2022-11-16T12:16:15.811Z,55.40
2022-11-16T12:17:15.727Z,46.64
2022-11-16T12:18:16.170Z,50.71
2022-11-16T12:19:15.692Z,49.45
2022-11-16T12:20:15.713Z,47.67
2022-11-16T12:21:15.677Z,49.48
2022-11-16T12:22:15.690Z,52.17
2022-11-16T12:23:16.530Z,50.57
2022-11-16T12:24:16.771Z,51.98
2022-11-16T12:25:15.669Z,50.23
2022-11-16T12:26:15.641Z,50.30
2022-11-16T12:27:15.629Z,53.11
2022-11-16T12:28:15.642Z,50.26
2022-11-16T12:29:15.619Z,48.83
2022-11-16T12:30:15.642Z,48.70
2022-11-16T12:31:15.672Z,48.76
2022-11-16T12:32:15.598Z,48.97
2022-11-16T12:33:37.229Z,48.78
2022-11-16T12:34:15.584Z,49.55
2022-11-16T12:35:15.584Z,47.99
2022-11-16T12:36:15.570Z,49.57
2022-11-16T12:37:15.560Z,48.33
2022-11-16T12:38:15.555Z,47.93
2022-11-16T12:39:15.553Z,49.50
2022-11-16T12:40:15.653Z,49.15
2022-11-16T12:41:15.538Z,50.01
2022-11-16T12:42:15.529Z,55.93
2022-11-16T12:43:15.612Z,50.19
2022-11-16T12:44:15.540Z,54.47
2022-11-16T12:45:16.771Z,59.96
2022-11-16T12:46:15.494Z,48.12
2022-11-16T12:47:15.493Z,49.37
2022-11-16T12:48:15.512Z,50.41
2022-11-16T12:49:15.469Z,51.12
2022-11-16T12:50:15.468Z,49.50
2022-11-16T12:51:15.463Z,49.62
2022-11-16T12:52:15.474Z,53.79